createdAt,value
2022-08-26T00:01:57.177Z,8.60
2022-08-26T00:07:00.696Z,8.10
2022-08-26T00:12:05.849Z,7.60
2022-08-26T00:17:09.780Z,8.70
2022-08-26T00:22:14.214Z,8.70
2022-08-26T00:27:24.998Z,10.50
2022-08-26T00:32:29.231Z,10.60
2022-08-26T00:37:33.539Z,9.50
2022-08-26T00:42:36.876Z,9.00
2022-08-26T00:47:46.433Z,9.80
2022-08-26T00:52:53.665Z,10.60
2022-08-26T00:57:57.253Z,9.10
2022-08-26T01:03:05.273Z,10.00
2022-08-26T01:08:11.656Z,9.00
2022-08-26T01:13:16.300Z,10.80
2022-08-26T01:18:25.024Z,12.20
2022-08-26T01:23:32.854Z,10.40
2022-08-26T01:28:38.489Z,10.80
2022-08-26T01:33:52.819Z,9.60
2022-08-26T01:38:57.737Z,9.50
2022-08-26T01:44:02.919Z,10.40
2022-08-26T01:49:08.599Z,9.70
2022-08-26T01:54:13.854Z,8.80
2022-08-26T01:59:20.464Z,9.20
2022-08-26T02:04:31.850Z,9.20
2022-08-26T02:09:41.579Z,9.60
2022-08-26T02:14:51.275Z,8.60
2022-08-26T02:19:54.943Z,7.50
2022-08-26T02:25:02.297Z,7.30
2022-08-26T02:30:17.952Z,7.40
2022-08-26T02:35:23.664Z,7.60
2022-08-26T02:40:32.927Z,7.50
2022-08-26T02:45:40.784Z,7.90
2022-08-26T02:50:44.507Z,6.40
2022-08-26T02:55:49.864Z,6.70
2022-08-26T03:00:53.937Z,8.40
2022-08-26T03:05:58.633Z,10.40
2022-08-26T03:11:01.887Z,10.40
2022-08-26T03:16:05.738Z,9.40
2022-08-26T03:21:12.075Z,9.40
2022-08-26T03:26:17.919Z,10.00
2022-08-26T03:31:21.499Z,10.10
2022-08-26T03:36:28.133Z,9.40
2022-08-26T03:41:35.327Z,9.00
2022-08-26T03:46:39.632Z,9.60
2022-08-26T03:51:43.280Z,8.70
2022-08-26T03:56:48.228Z,10.90
2022-08-26T04:01:51.593Z,10.50
2022-08-26T04:06:59.679Z,13.30
2022-08-26T04:12:04.132Z,12.60
2022-08-26T04:17:08.138Z,12.30
2022-08-26T04:22:12.082Z,13.30
2022-08-26T04:27:16.388Z,11.90
2022-08-26T04:32:20.109Z,13.30
2022-08-26T04:37:23.419Z,13.00
2022-08-26T04:42:27.762Z,12.50
2022-08-26T04:47:32.454Z,11.50
2022-08-26T04:52:36.967Z,10.30
2022-08-26T04:57:41.582Z,9.50
2022-08-26T05:02:44.786Z,9.90
2022-08-26T05:07:48.206Z,9.70
2022-08-26T05:12:53.354Z,9.60
2022-08-26T05:17:59.328Z,8.90
2022-08-26T05:23:04.943Z,8.10
2022-08-26T05:28:09.763Z,7.20
2022-08-26T05:33:13.458Z,6.50
2022-08-26T05:38:19.258Z,6.20
2022-08-26T05:43:22.546Z,5.40
2022-08-26T05:48:25.848Z,6.20
2022-08-26T05:53:29.158Z,5.80
2022-08-26T05:58:34.516Z,6.30
2022-08-26T06:03:40.593Z,5.60
2022-08-26T06:08:45.133Z,6.40
2022-08-26T06:13:48.456Z,6.90
2022-08-26T06:18:53.599Z,6.50
2022-08-26T06:24:19.050Z,6.20
2022-08-26T06:29:25.542Z,6.60
2022-08-26T06:34:30.719Z,5.90
2022-08-26T06:39:34.328Z,6.20
2022-08-26T06:44:37.906Z,6.60
2022-08-26T06:49:44.593Z,6.70
2022-08-26T06:54:47.908Z,6.30
2022-08-26T06:59:51.463Z,6.10
2022-08-26T07:04:54.730Z,6.10
2022-08-26T07:10:00.606Z,5.80
2022-08-26T07:15:06.560Z,5.10
2022-08-26T07:20:12.557Z,5.10
2022-08-26T07:25:16.790Z,5.70
2022-08-26T07:30:22.695Z,5.80
2022-08-26T07:35:27.079Z,4.70
2022-08-26T07:40:30.548Z,4.60
2022-08-26T07:45:34.223Z,4.80
2022-08-26T07:50:50.345Z,5.10
2022-08-26T07:55:54.771Z,5.00
2022-08-26T08:00:59.449Z,4.90
2022-08-26T08:06:04.157Z,4.90
2022-08-26T08:11:07.673Z,5.70
2022-08-26T08:16:13.343Z,5.20
2022-08-26T08:21:22.046Z,5.70
2022-08-26T08:26:28.054Z,5.10
2022-08-26T08:31:55.709Z,5.50
2022-08-26T08:36:57.630Z,5.00
2022-08-26T08:42:00.920Z,4.90
2022-08-26T08:47:34.248Z,4.80
2022-08-26T08:52:40.060Z,4.40
2022-08-26T08:58:02.504Z,4.50
2022-08-26T09:03:34.856Z,4.80
2022-08-26T09:08:38.374Z,4.60
2022-08-26T09:13:47.896Z,4.40
2022-08-26T09:23:56.988Z,4.10
2022-08-26T09:29:03.856Z,4.30
2022-08-26T09:34:07.521Z,4.60
2022-08-26T09:39:31.823Z,4.10
2022-08-26T09:44:51.725Z,4.40
2022-08-26T09:50:15.106Z,4.50
2022-08-26T09:55:24.403Z,4.60
2022-08-26T10:00:40.773Z,4.00
2022-08-26T10:05:59.213Z,3.90
2022-08-26T10:11:28.776Z,4.30
2022-08-26T10:17:01.639Z,3.90
2022-08-26T10:22:18.292Z,3.80
2022-08-26T10:28:00.822Z,4.10
2022-08-26T10:33:08.837Z,4.10
2022-08-26T10:38:17.274Z,4.10
2022-08-26T10:43:44.002Z,4.30
2022-08-26T10:48:56.710Z,4.30
2022-08-26T10:54:37.864Z,4.40
2022-08-26T11:00:24.491Z,4.40
2022-08-26T11:05:31.181Z,4.00
2022-08-26T11:10:43.301Z,4.20
2022-08-26T11:15:58.796Z,4.10
2022-08-26T11:21:45.547Z,3.90
2022-08-26T11:26:55.314Z,4.40
2022-08-26T11:32:00.090Z,4.40
2022-08-26T11:37:16.357Z,4.10
2022-08-26T11:42:38.603Z,4.30
2022-08-26T11:47:43.040Z,4.30
2022-08-26T11:53:06.059Z,3.80
2022-08-26T11:58:12.803Z,4.00
2022-08-26T12:03:27.071Z,3.90
2022-08-26T12:08:34.644Z,3.90
2022-08-26T12:13:39.531Z,3.50
2022-08-26T12:18:44.973Z,4.10
2022-08-26T12:23:52.964Z,3.40
2022-08-26T12:29:12.597Z,3.80
2022-08-26T12:34:24.315Z,3.70
2022-08-26T12:39:34.589Z,3.40
2022-08-26T12:45:02.065Z,4.10
2022-08-26T12:50:18.688Z,3.70
2022-08-26T12:55:35.804Z,3.80
2022-08-26T13:00:46.044Z,3.40
2022-08-26T13:05:49.923Z,3.60
2022-08-26T13:11:30.916Z,3.50
2022-08-26T13:16:35.565Z,3.60
2022-08-26T13:21:48.510Z,3.80
2022-08-26T13:26:52.081Z,3.80
2022-08-26T13:31:56.487Z,3.60
2022-08-26T13:37:01.194Z,3.40
2022-08-26T13:42:04.911Z,3.70
2022-08-26T13:47:08.735Z,4.20
2022-08-26T13:52:12.353Z,4.70
2022-08-26T13:57:16.279Z,3.10
2022-08-26T14:02:20.429Z,3.20
2022-08-26T14:07:24.080Z,4.00
2022-08-26T14:12:27.747Z,3.30
2022-08-26T14:17:33.004Z,3.60
2022-08-26T14:23:03.443Z,4.10
2022-08-26T14:28:08.708Z,3.30
2022-08-26T14:33:15.105Z,3.50
2022-08-26T14:38:18.861Z,3.50
2022-08-26T14:43:22.163Z,3.90
2022-08-26T14:48:26.051Z,3.30
2022-08-26T14:53:47.789Z,3.10
2022-08-26T14:58:51.100Z,3.30
2022-08-26T15:03:54.617Z,3.20
2022-08-26T15:08:58.849Z,3.70
2022-08-26T15:14:02.861Z,3.20
2022-08-26T15:19:07.010Z,3.50
2022-08-26T15:24:10.524Z,3.10
2022-08-26T15:29:15.268Z,3.10
2022-08-26T15:34:18.784Z,3.60
2022-08-26T15:39:22.098Z,3.40
2022-08-26T15:44:26.739Z,3.20
2022-08-26T15:49:30.148Z,3.40
2022-08-26T15:54:34.538Z,3.70
2022-08-26T15:59:37.897Z,3.30
2022-08-26T16:04:41.518Z,3.50
2022-08-26T16:09:54.036Z,3.20
2022-08-26T16:14:58.486Z,3.20
2022-08-26T16:20:01.798Z,3.60
2022-08-26T16:25:08.426Z,3.50
2022-08-26T16:30:13.620Z,3.50
2022-08-26T16:35:17.562Z,4.40
2022-08-26T16:40:21.123Z,4.00
2022-08-26T16:45:25.817Z,4.00
2022-08-26T16:50:30.582Z,3.70
2022-08-26T16:55:34.497Z,3.70
2022-08-26T17:00:39.135Z,4.50
2022-08-26T17:05:42.863Z,4.30
2022-08-26T17:10:46.269Z,3.90
2022-08-26T17:15:54.407Z,6.60
2022-08-26T17:21:08.557Z,16.70
2022-08-26T17:26:13.649Z,9.30
2022-08-26T17:31:18.414Z,6.40
2022-08-26T17:36:27.437Z,9.30
2022-08-26T17:41:33.449Z,5.80
2022-08-26T17:46:38.528Z,5.00
2022-08-26T17:51:43.089Z,4.70
2022-08-26T17:56:47.322Z,6.20
2022-08-26T18:01:54.499Z,4.30
2022-08-26T18:07:00.100Z,5.10
2022-08-26T18:12:05.162Z,5.60
2022-08-26T18:17:09.896Z,5.40
2022-08-26T18:22:15.713Z,5.60
2022-08-26T18:27:20.585Z,6.10
2022-08-26T18:32:25.034Z,6.80
2022-08-26T18:37:31.591Z,5.30
2022-08-26T18:42:36.554Z,5.40
2022-08-26T18:47:40.187Z,5.80
2022-08-26T18:52:44.511Z,5.30
2022-08-26T18:57:48.135Z,5.00
2022-08-26T19:02:56.032Z,6.30
2022-08-26T19:08:03.408Z,4.90
2022-08-26T19:13:08.875Z,4.80
2022-08-26T19:18:15.518Z,5.00
2022-08-26T19:23:31.371Z,5.60
2022-08-26T19:28:35.946Z,5.70
2022-08-26T19:33:42.126Z,4.70
2022-08-26T19:38:46.631Z,4.90
2022-08-26T19:43:50.434Z,5.20
2022-08-26T19:48:55.871Z,4.60
2022-08-26T19:54:01.503Z,4.70
2022-08-26T19:59:05.248Z,4.70
2022-08-26T20:04:09.161Z,4.70
2022-08-26T20:09:12.981Z,5.00
2022-08-26T20:14:19.152Z,4.40
2022-08-26T20:19:46.027Z,4.80
2022-08-26T20:24:49.952Z,4.50
2022-08-26T20:29:57.975Z,5.00
2022-08-26T20:35:01.796Z,5.60
2022-08-26T20:40:09.260Z,5.00
2022-08-26T20:45:12.921Z,5.20
2022-08-26T20:50:16.644Z,5.80
2022-08-26T20:55:21.517Z,5.70
2022-08-26T21:00:27.007Z,5.30
2022-08-26T21:05:32.106Z,5.80
2022-08-26T21:10:35.729Z,5.50
2022-08-26T21:15:39.345Z,5.60
2022-08-26T21:20:42.960Z,5.40
2022-08-26T21:25:47.293Z,5.50
2022-08-26T21:30:51.552Z,5.50
2022-08-26T21:35:56.089Z,5.40
2022-08-26T21:41:01.871Z,5.40
2022-08-26T21:46:11.946Z,5.90
2022-08-26T21:51:17.875Z,6.10
2022-08-26T21:56:22.655Z,10.10
2022-08-26T22:01:29.793Z,6.30
2022-08-26T22:06:35.309Z,5.80
2022-08-26T22:11:39.009Z,6.10
2022-08-26T22:16:45.730Z,5.90
2022-08-26T22:21:56.023Z,6.10
2022-08-26T22:26:59.486Z,7.80
2022-08-26T22:32:03.236Z,5.90
2022-08-26T22:37:06.720Z,6.10
2022-08-26T22:42:10.133Z,5.80
2022-08-26T22:47:13.350Z,6.60
2022-08-26T22:52:16.755Z,6.20
2022-08-26T22:57:21.008Z,6.30
2022-08-26T23:02:24.708Z,6.00
2022-08-26T23:07:28.019Z,6.00
2022-08-26T23:12:31.775Z,6.10
2022-08-26T23:17:36.893Z,6.00
2022-08-26T23:22:40.921Z,6.20
2022-08-26T23:27:44.337Z,6.50
2022-08-26T23:32:47.748Z,7.10
2022-08-26T23:37:52.908Z,7.00
2022-08-26T23:42:58.773Z,6.50
2022-08-26T23:48:03.222Z,6.70
2022-08-26T23:53:06.725Z,7.30
2022-08-26T23:58:10.391Z,6.70
